createdAt,value
2018-08-09T00:01:07.428Z,97812.66
2018-08-09T00:03:36.171Z,97812.63
2018-08-09T00:06:04.998Z,97811.05
2018-08-09T00:08:33.768Z,97811.25
2018-08-09T00:11:02.516Z,97806.53
2018-08-09T00:13:31.150Z,97805.52
2018-08-09T00:15:59.926Z,97808.66
2018-08-09T00:18:28.681Z,97803.50
2018-08-09T00:20:58.108Z,97806.58
2018-08-09T00:23:27.039Z,97803.04
2018-08-09T00:25:55.777Z,97800.05
2018-08-09T00:28:24.475Z,97805.55
2018-08-09T00:30:53.306Z,97805.50
2018-08-09T00:33:22.034Z,97796.22
2018-08-09T00:35:50.889Z,97792.88
2018-08-09T00:38:19.590Z,97793.02
2018-08-09T00:40:48.322Z,97794.59
2018-08-09T00:43:17.146Z,97793.57
2018-08-09T00:45:46.009Z,97797.65
2018-08-09T00:48:15.029Z,97793.11
2018-08-09T00:50:43.778Z,97796.02
2018-08-09T00:53:12.489Z,97793.64
2018-08-09T00:55:41.403Z,97790.06
2018-08-09T00:58:10.192Z,97783.37
2018-08-09T01:00:38.926Z,97785.39
2018-08-09T01:03:07.615Z,97784.95
2018-08-09T01:05:36.474Z,97790.45
2018-08-09T01:08:05.117Z,97775.56
2018-08-09T01:10:33.773Z,97777.14
2018-08-09T01:13:02.401Z,97780.22
2018-08-09T01:15:31.081Z,97783.13
2018-08-09T01:17:59.833Z,97782.84
2018-08-09T01:20:28.471Z,97782.33
2018-08-09T01:22:57.457Z,97786.65
2018-08-09T01:25:26.617Z,97796.58
2018-08-09T01:27:55.382Z,97795.71
2018-08-09T01:30:24.662Z,97795.65
2018-08-09T01:32:53.548Z,97797.61
2018-08-09T01:35:22.194Z,97795.58
2018-08-09T01:37:50.894Z,97800.30
2018-08-09T01:40:19.555Z,97800.67
2018-08-09T01:42:59.477Z,97794.20
2018-08-09T01:45:28.110Z,97794.74
2018-08-09T01:47:56.852Z,97789.97
2018-08-09T01:50:25.687Z,97789.38
2018-08-09T01:52:54.377Z,97792.56
2018-08-09T01:55:23.302Z,97793.50
2018-08-09T01:57:52.098Z,97799.94
2018-08-09T02:00:20.931Z,97796.20
2018-08-09T02:02:49.654Z,97800.09
2018-08-09T02:05:18.322Z,97801.11
2018-08-09T02:07:47.241Z,97790.91
2018-08-09T02:10:16.082Z,97788.95
2018-08-09T02:12:44.881Z,97790.45
2018-08-09T02:15:13.647Z,97796.91
2018-08-09T02:17:42.300Z,97794.75
2018-08-09T02:20:11.284Z,97796.33
2018-08-09T02:22:39.922Z,97787.66
2018-08-09T02:25:08.605Z,97787.89
2018-08-09T02:27:37.250Z,97781.75
2018-08-09T02:30:07.370Z,97778.78
2018-08-09T02:32:36.118Z,97777.43
2018-08-09T02:35:05.122Z,97767.41
2018-08-09T02:37:33.813Z,97764.28
2018-08-09T02:40:02.730Z,97768.78
2018-08-09T02:42:31.577Z,97778.40
2018-08-09T02:45:00.348Z,97773.59
2018-08-09T02:47:29.518Z,97772.75
2018-08-09T02:49:58.518Z,97769.98
2018-08-09T02:52:27.983Z,97773.72
2018-08-09T02:54:57.493Z,97772.93
2018-08-09T02:57:26.969Z,97778.54
2018-08-09T02:59:56.514Z,97776.15
2018-08-09T03:02:25.218Z,97784.17
2018-08-09T03:04:54.190Z,97791.77
2018-08-09T03:07:23.004Z,97778.05
2018-08-09T03:09:52.227Z,97778.16
2018-08-09T03:12:21.117Z,97777.55
2018-08-09T03:14:50.090Z,97770.89
2018-08-09T03:17:18.790Z,97769.31
2018-08-09T03:19:47.506Z,97762.25
2018-08-09T03:22:16.546Z,97766.16
2018-08-09T03:24:45.363Z,97759.10
2018-08-09T03:27:14.197Z,97755.91
2018-08-09T03:29:43.128Z,97762.57
2018-08-09T03:32:11.881Z,97761.00
2018-08-09T03:34:40.570Z,97760.15
2018-08-09T03:37:09.586Z,97764.06
2018-08-09T03:39:38.361Z,97760.91
2018-08-09T03:42:07.154Z,97762.98
2018-08-09T03:44:35.954Z,97763.97
2018-08-09T03:47:04.713Z,97760.79
2018-08-09T03:49:33.483Z,97753.08
2018-08-09T03:52:02.194Z,97755.00
2018-08-09T03:54:30.867Z,97754.42
2018-08-09T03:56:59.674Z,97750.51
2018-08-09T03:59:28.410Z,97759.05
2018-08-09T04:01:57.289Z,97761.18
2018-08-09T04:04:25.979Z,97759.84
2018-08-09T04:06:54.981Z,97758.64
2018-08-09T04:09:23.725Z,97761.39
2018-08-09T04:11:52.468Z,97761.08
2018-08-09T04:14:21.430Z,97758.53
2018-08-09T04:16:50.095Z,97761.89
2018-08-09T04:19:18.759Z,97763.47
2018-08-09T04:21:47.500Z,97763.16
2018-08-09T04:24:16.365Z,97767.68
2018-08-09T04:26:45.172Z,97762.30
2018-08-09T04:29:13.909Z,97768.75
2018-08-09T04:31:42.738Z,97766.97
2018-08-09T04:34:11.434Z,97769.06
2018-08-09T04:36:40.077Z,97773.42
2018-08-09T04:39:09.969Z,97779.42
2018-08-09T04:41:38.684Z,97780.14
2018-08-09T04:44:07.709Z,97781.51
2018-08-09T04:46:36.482Z,97775.33
2018-08-09T04:49:05.374Z,97773.92
2018-08-09T04:51:34.118Z,97773.92
2018-08-09T04:54:02.846Z,97777.34
2018-08-09T04:56:31.672Z,97772.84
2018-08-09T04:59:00.458Z,97762.28
2018-08-09T05:01:29.198Z,97761.49
2018-08-09T05:03:57.910Z,97766.69
2018-08-09T05:06:26.635Z,97766.78
2018-08-09T05:08:55.403Z,97763.53
2018-08-09T05:11:24.202Z,97764.06
2018-08-09T05:13:52.995Z,97773.03
2018-08-09T05:16:21.773Z,97777.14
2018-08-09T05:18:50.590Z,97776.27
2018-08-09T05:21:19.522Z,97775.38
2018-08-09T05:23:48.462Z,97778.54
2018-08-09T05:26:17.193Z,97777.13
2018-08-09T05:28:46.028Z,97779.19
2018-08-09T05:31:14.769Z,97767.64
2018-08-09T05:33:43.518Z,97769.47
2018-08-09T05:36:12.281Z,97777.78
2018-08-09T05:38:41.038Z,97773.13
2018-08-09T05:41:10.077Z,97773.39
2018-08-09T05:43:38.733Z,97773.19
2018-08-09T05:46:07.662Z,97773.46
2018-08-09T05:48:36.434Z,97771.38
2018-08-09T05:51:05.240Z,97779.04
2018-08-09T05:53:34.222Z,97771.64
2018-08-09T05:56:02.982Z,97775.58
2018-08-09T09:36:51.053Z,97652.22
2018-08-09T09:39:19.807Z,97652.03
2018-08-09T09:41:48.636Z,97655.02
2018-08-09T09:44:17.466Z,97654.47
2018-08-09T09:46:46.286Z,97644.38
2018-08-09T09:49:15.261Z,97649.66
2018-08-09T09:51:43.999Z,97641.41
2018-08-09T09:54:12.949Z,97640.19
2018-08-09T09:56:41.674Z,97638.09
2018-08-09T09:59:10.482Z,97646.70
2018-08-09T10:01:39.349Z,97638.78
2018-08-09T10:04:13.169Z,97634.44
2018-08-09T10:06:42.261Z,97626.38
2018-08-09T10:09:12.201Z,97623.95
2018-08-09T10:11:41.240Z,97619.69
2018-08-09T10:14:10.008Z,97617.86
2018-08-09T10:16:38.784Z,97615.37
2018-08-09T10:19:07.704Z,97621.17
2018-08-09T10:21:37.045Z,97615.55
2018-08-09T10:24:05.852Z,97616.24
2018-08-09T10:26:34.893Z,97614.77
2018-08-09T10:29:03.703Z,97614.98
2018-08-09T10:31:33.863Z,97603.66
2018-08-09T10:34:02.905Z,97602.10
2018-08-09T10:36:31.796Z,97595.18
2018-08-09T10:39:00.748Z,97600.69
2018-08-09T10:41:29.563Z,97597.42
2018-08-09T10:43:58.211Z,97593.36
2018-08-09T10:46:27.021Z,97591.58
2018-08-09T10:48:55.791Z,97579.09
2018-08-09T10:51:25.022Z,97576.30
2018-08-09T10:53:53.876Z,97570.88
2018-08-09T10:56:24.901Z,97573.58
2018-08-09T10:58:53.687Z,97566.23
2018-08-09T11:01:22.523Z,97565.58
2018-08-09T11:03:51.201Z,97561.53
2018-08-09T11:06:20.157Z,97553.87
2018-08-09T11:08:48.951Z,97553.01
2018-08-09T11:11:17.652Z,97552.60
2018-08-09T11:13:46.741Z,97553.68
2018-08-09T11:16:16.299Z,97550.52
2018-08-09T11:18:45.777Z,97543.70
2018-08-09T11:21:15.105Z,97547.45
2018-08-09T11:23:43.935Z,97534.58
2018-08-09T11:26:12.648Z,97541.39
2018-08-09T11:28:41.409Z,97534.33
2018-08-09T11:31:10.468Z,97533.31
2018-08-09T11:33:39.446Z,97527.58
2018-08-09T11:36:08.171Z,97524.11
2018-08-09T11:38:36.901Z,97526.78
2018-08-09T11:41:05.593Z,97524.26
2018-08-09T11:43:34.361Z,97518.98
2018-08-09T11:46:03.293Z,97509.04
2018-08-09T11:48:32.477Z,97506.28
2018-08-09T11:51:01.397Z,97499.58
2018-08-09T11:53:30.085Z,97503.91
2018-08-09T11:55:58.843Z,97502.39
2018-08-09T11:58:27.857Z,97499.06
2018-08-09T12:00:56.497Z,97503.27
2018-08-09T12:03:25.357Z,97501.73
2018-08-09T12:05:54.560Z,97503.84
2018-08-09T12:08:23.432Z,97514.28
2018-08-09T12:10:52.311Z,97506.27
2018-08-09T12:13:21.302Z,97499.66
2018-08-09T12:15:51.251Z,97498.37
2018-08-09T12:18:20.127Z,97488.50
2018-08-09T12:20:49.009Z,97482.22
2018-08-09T12:23:17.753Z,97478.28
2018-08-09T12:25:46.725Z,97484.70
2018-08-09T12:28:15.469Z,97470.55
2018-08-09T12:30:44.173Z,97467.53
2018-08-09T12:33:13.151Z,97466.72
2018-08-09T12:35:42.665Z,97468.34
2018-08-09T12:38:11.442Z,97461.86
2018-08-09T12:40:40.194Z,97467.00
2018-08-09T12:43:08.930Z,97454.95
2018-08-09T12:45:37.981Z,97451.27
2018-08-09T12:48:07.272Z,97444.03
2018-08-09T12:50:36.443Z,97429.28
2018-08-09T12:53:05.861Z,97428.98
2018-08-09T12:55:34.801Z,97437.84
2018-08-09T12:58:03.622Z,97427.43
2018-08-09T13:00:32.479Z,97424.00
2018-08-09T13:03:01.158Z,97416.94
2018-08-09T13:05:30.067Z,97405.88
2018-08-09T13:07:58.945Z,97410.64
2018-08-09T13:10:27.657Z,97410.57
2018-08-09T13:12:56.473Z,97412.00
2018-08-09T13:15:26.382Z,97410.66
2018-08-09T13:17:55.239Z,97404.81
2018-08-09T13:20:24.160Z,97400.52
2018-08-09T13:22:52.889Z,97383.84
2018-08-09T13:25:21.749Z,97391.47
2018-08-09T13:27:50.604Z,97392.25
2018-08-09T13:30:19.381Z,97384.15
2018-08-09T13:32:48.065Z,97379.46
2018-08-09T13:35:16.799Z,97377.93
2018-08-09T13:37:45.686Z,97376.59
2018-08-09T13:40:14.480Z,97369.71
2018-08-09T13:42:43.237Z,97372.88
2018-08-09T13:45:15.023Z,97368.48
2018-08-09T13:47:43.978Z,97363.13
2018-08-09T13:50:13.273Z,97348.12
2018-08-09T13:52:42.748Z,97351.41
2018-08-09T13:55:13.806Z,97357.71
2018-08-09T13:57:42.567Z,97357.45
2018-08-09T14:00:12.941Z,97367.42
2018-08-09T14:02:43.585Z,97368.21
2018-08-09T14:05:12.504Z,97356.69
2018-08-09T14:07:43.063Z,97359.55
2018-08-09T14:10:12.341Z,97363.55
2018-08-09T14:12:42.141Z,97362.60
2018-08-09T14:15:12.518Z,97354.51
2018-08-09T14:17:41.221Z,97359.34
2018-08-09T14:20:15.675Z,97358.95
2018-08-09T14:22:44.462Z,97356.94
2018-08-09T14:25:13.762Z,97363.27
2018-08-09T14:27:42.773Z,97368.38
2018-08-09T14:30:13.703Z,97361.90
2018-08-09T14:32:43.125Z,97370.08
2018-08-09T14:35:13.581Z,97366.96
2018-08-09T14:37:42.974Z,97369.81
2018-08-09T14:40:12.531Z,97365.59
2018-08-09T14:42:41.398Z,97390.19
2018-08-09T14:45:15.829Z,97384.29
2018-08-09T14:47:44.824Z,97378.44
2018-08-09T14:50:13.789Z,97373.80
2018-08-09T14:52:43.023Z,97374.84
2018-08-09T14:55:13.380Z,97379.63
2018-08-09T14:57:43.088Z,97378.27
2018-08-09T15:00:16.485Z,97374.50
2018-08-09T15:02:46.294Z,97381.12
2018-08-09T15:05:16.521Z,97379.22
2018-08-09T15:07:46.098Z,97377.30
2018-08-09T15:10:16.278Z,97381.65
2018-08-09T15:12:45.455Z,97386.72
2018-08-09T15:15:14.481Z,97386.05
2018-08-09T15:17:43.276Z,97387.50
2018-08-09T15:20:14.184Z,97381.45
2018-08-09T15:22:43.697Z,97388.55
2018-08-09T15:25:12.927Z,97387.55
2018-08-09T15:27:41.722Z,97381.97
2018-08-09T15:30:16.690Z,97388.45
2018-08-09T15:32:45.563Z,97388.16
2018-08-09T15:35:15.201Z,97390.99
2018-08-09T15:37:44.275Z,97393.53
2018-08-09T15:40:13.664Z,97399.34
2018-08-09T15:42:42.576Z,97402.16
2018-08-09T15:45:13.391Z,97438.73
2018-08-09T15:47:43.084Z,97475.71
2018-08-09T15:50:17.445Z,97492.34
2018-08-09T15:52:46.864Z,97492.03
2018-08-09T15:55:16.917Z,97496.14
2018-08-09T15:57:45.996Z,97499.92
2018-08-09T16:00:18.842Z,97537.05
2018-08-09T16:02:47.856Z,97557.05
2018-08-09T16:05:16.913Z,97552.65
2018-08-09T16:07:46.134Z,97557.11
2018-08-09T16:10:16.092Z,97548.33
2018-08-09T16:12:45.899Z,97562.81
2018-08-09T16:15:17.305Z,97567.92
2018-08-09T16:17:47.452Z,97556.11
2018-08-09T16:20:16.450Z,97566.45
2018-08-09T16:22:46.125Z,97576.63
2018-08-09T16:25:18.325Z,97580.45
2018-08-09T16:27:47.709Z,97609.46
2018-08-09T16:30:23.150Z,97597.80
2018-08-09T16:32:52.158Z,97614.55
2018-08-09T16:35:21.374Z,97615.02
2018-08-09T16:37:50.517Z,97608.25
2018-08-09T16:40:21.630Z,97604.11
2018-08-09T16:42:50.377Z,97613.89
2018-08-09T16:45:20.431Z,97616.81
2018-08-09T16:47:49.913Z,97594.56
2018-08-09T16:50:20.871Z,97616.09
2018-08-09T16:52:50.771Z,97622.51
2018-08-09T16:55:20.930Z,97617.71
2018-08-09T16:57:49.689Z,97601.63
2018-08-09T17:00:20.929Z,97612.02
2018-08-09T17:02:50.144Z,97608.92
2018-08-09T17:05:21.386Z,97610.23
2018-08-09T17:07:50.749Z,97611.55
2018-08-09T17:10:21.712Z,97610.13
2018-08-09T17:12:50.625Z,97598.63
2018-08-09T17:15:21.677Z,97609.42
2018-08-09T17:17:50.755Z,97614.13
2018-08-09T17:20:22.979Z,97619.24
2018-08-09T17:22:51.819Z,97610.02
2018-08-09T17:25:20.791Z,97605.67
2018-08-09T17:27:50.177Z,97609.58
2018-08-09T17:30:21.933Z,97614.35
2018-08-09T17:32:50.749Z,97617.02
2018-08-09T17:35:20.268Z,97627.06
